sensor_id;sensor_type;location;lat;lon;timestamp;P1;durP1;ratioP1;P2;durP2;ratioP2
74959;SDS011;63518;49.572;1.106;2022-12-29T00:05:43;5.80;;;0.80;;
74959;SDS011;63518;49.572;1.106;2022-12-29T00:09:26;6.25;;;0.90;;
74959;SDS011;63518;49.572;1.106;2022-12-29T00:12:50;4.00;;;0.70;;
74959;SDS011;63518;49.572;1.106;2022-12-29T00:15:46;3.60;;;1.00;;
74959;SDS011;63518;49.572;1.106;2022-12-29T00:19:05;3.75;;;0.70;;
74959;SDS011;63518;49.572;1.106;2022-12-29T00:22:20;3.60;;;0.73;;
74959;SDS011;63518;49.572;1.106;2022-12-29T00:25:51;5.07;;;0.80;;
74959;SDS011;63518;49.572;1.106;2022-12-29T00:28:51;3.67;;;0.80;;
74959;SDS011;63518;49.572;1.106;2022-12-29T00:32:07;3.22;;;0.60;;
74959;SDS011;63518;49.572;1.106;2022-12-29T00:39:20;3.60;;;0.80;;
74959;SDS011;63518;49.572;1.106;2022-12-29T00:42:43;4.30;;;1.10;;
74959;SDS011;63518;49.572;1.106;2022-12-29T00:45:49;3.77;;;0.87;;
74959;SDS011;63518;49.572;1.106;2022-12-29T00:48:31;6.45;;;1.00;;
74959;SDS011;63518;49.572;1.106;2022-12-29T00:51:23;4.03;;;1.02;;
74959;SDS011;63518;49.572;1.106;2022-12-29T00:54:19;3.65;;;0.70;;
74959;SDS011;63518;49.572;1.106;2022-12-29T00:57:54;5.13;;;0.98;;
74959;SDS011;63518;49.572;1.106;2022-12-29T01:00:51;4.63;;;0.85;;
74959;SDS011;63518;49.572;1.106;2022-12-29T01:03:59;3.60;;;0.93;;
74959;SDS011;63518;49.572;1.106;2022-12-29T01:07:07;4.90;;;0.90;;
74959;SDS011;63518;49.572;1.106;2022-12-29T01:10:06;3.97;;;0.73;;
74959;SDS011;63518;49.572;1.106;2022-12-29T01:13:03;3.97;;;0.80;;
74959;SDS011;63518;49.572;1.106;2022-12-29T01:16:04;5.38;;;1.02;;
74959;SDS011;63518;49.572;1.106;2022-12-29T01:18:44;6.90;;;1.20;;
74959;SDS011;63518;49.572;1.106;2022-12-29T01:21:15;5.17;;;0.93;;
74959;SDS011;63518;49.572;1.106;2022-12-29T01:23:55;4.05;;;0.80;;
74959;SDS011;63518;49.572;1.106;2022-12-29T01:27:11;5.30;;;1.07;;
74959;SDS011;63518;49.572;1.106;2022-12-29T01:29:59;4.70;;;0.90;;
74959;SDS011;63518;49.572;1.106;2022-12-29T01:33:07;4.67;;;0.90;;
74959;SDS011;63518;49.572;1.106;2022-12-29T01:35:51;7.82;;;1.00;;
74959;SDS011;63518;49.572;1.106;2022-12-29T01:38:50;6.95;;;1.17;;
74959;SDS011;63518;49.572;1.106;2022-12-29T01:41:35;5.97;;;1.20;;
74959;SDS011;63518;49.572;1.106;2022-12-29T01:48:00;5.60;;;1.10;;
74959;SDS011;63518;49.572;1.106;2022-12-29T01:51:11;5.55;;;0.90;;
74959;SDS011;63518;49.572;1.106;2022-12-29T01:54:16;5.18;;;0.95;;
74959;SDS011;63518;49.572;1.106;2022-12-29T02:00:25;5.53;;;0.90;;
74959;SDS011;63518;49.572;1.106;2022-12-29T02:04:19;6.20;;;1.08;;
74959;SDS011;63518;49.572;1.106;2022-12-29T02:07:39;7.25;;;1.10;;
74959;SDS011;63518;49.572;1.106;2022-12-29T02:10:13;7.00;;;1.35;;
74959;SDS011;63518;49.572;1.106;2022-12-29T02:12:54;6.70;;;1.00;;
74959;SDS011;63518;49.572;1.106;2022-12-29T02:15:35;7.22;;;1.35;;
74959;SDS011;63518;49.572;1.106;2022-12-29T02:18:52;5.95;;;1.13;;
74959;SDS011;63518;49.572;1.106;2022-12-29T02:30:05;7.55;;;1.10;;
74959;SDS011;63518;49.572;1.106;2022-12-29T02:33:00;6.32;;;1.10;;
74959;SDS011;63518;49.572;1.106;2022-12-29T02:36:56;9.07;;;1.50;;
74959;SDS011;63518;49.572;1.106;2022-12-29T02:39:57;7.70;;;1.23;;
74959;SDS011;63518;49.572;1.106;2022-12-29T02:43:03;7.33;;;1.30;;
74959;SDS011;63518;49.572;1.106;2022-12-29T02:45:54;8.35;;;1.27;;
74959;SDS011;63518;49.572;1.106;2022-12-29T02:53:06;10.13;;;1.60;;
74959;SDS011;63518;49.572;1.106;2022-12-29T02:55:49;7.20;;;1.35;;
74959;SDS011;63518;49.572;1.106;2022-12-29T02:58:20;6.47;;;1.20;;
74959;SDS011;63518;49.572;1.106;2022-12-29T03:07:32;12.45;;;1.63;;
74959;SDS011;63518;49.572;1.106;2022-12-29T03:22:04;7.93;;;1.50;;
74959;SDS011;63518;49.572;1.106;2022-12-29T03:28:32;7.80;;;1.30;;
74959;SDS011;63518;49.572;1.106;2022-12-29T03:31:24;6.75;;;1.30;;
74959;SDS011;63518;49.572;1.106;2022-12-29T03:34:35;7.30;;;1.45;;
74959;SDS011;63518;49.572;1.106;2022-12-29T03:40:57;8.90;;;1.58;;
74959;SDS011;63518;49.572;1.106;2022-12-29T03:43:52;8.27;;;1.43;;
74959;SDS011;63518;49.572;1.106;2022-12-29T03:46:46;7.63;;;1.60;;
74959;SDS011;63518;49.572;1.106;2022-12-29T03:49:45;9.75;;;1.38;;
74959;SDS011;63518;49.572;1.106;2022-12-29T03:52:46;10.30;;;1.42;;
74959;SDS011;63518;49.572;1.106;2022-12-29T03:55:46;8.40;;;1.38;;
74959;SDS011;63518;49.572;1.106;2022-12-29T04:02:44;9.48;;;1.52;;
74959;SDS011;63518;49.572;1.106;2022-12-29T04:05:50;8.07;;;1.30;;
74959;SDS011;63518;49.572;1.106;2022-12-29T04:12:05;10.48;;;1.30;;
74959;SDS011;63518;49.572;1.106;2022-12-29T04:14:49;7.25;;;1.42;;
74959;SDS011;63518;49.572;1.106;2022-12-29T04:18:03;8.23;;;1.23;;
74959;SDS011;63518;49.572;1.106;2022-12-29T04:20:43;8.02;;;1.38;;
74959;SDS011;63518;49.572;1.106;2022-12-29T04:23:36;8.20;;;1.70;;
74959;SDS011;63518;49.572;1.106;2022-12-29T04:26:12;7.53;;;1.17;;
74959;SDS011;63518;49.572;1.106;2022-12-29T04:28:47;8.27;;;1.30;;
74959;SDS011;63518;49.572;1.106;2022-12-29T04:35:33;7.53;;;1.23;;
74959;SDS011;63518;49.572;1.106;2022-12-29T04:38:29;7.00;;;1.35;;
74959;SDS011;63518;49.572;1.106;2022-12-29T04:41:13;9.27;;;1.30;;
74959;SDS011;63518;49.572;1.106;2022-12-29T04:44:14;9.15;;;1.50;;
74959;SDS011;63518;49.572;1.106;2022-12-29T04:50:32;8.13;;;1.67;;
74959;SDS011;63518;49.572;1.106;2022-12-29T04:53:18;8.35;;;1.25;;
74959;SDS011;63518;49.572;1.106;2022-12-29T04:56:12;7.00;;;1.20;;
74959;SDS011;63518;49.572;1.106;2022-12-29T05:03:19;7.25;;;1.20;;
74959;SDS011;63518;49.572;1.106;2022-12-29T05:06:36;6.32;;;1.15;;
74959;SDS011;63518;49.572;1.106;2022-12-29T05:09:23;9.48;;;1.90;;
74959;SDS011;63518;49.572;1.106;2022-12-29T05:12:51;9.23;;;1.55;;
74959;SDS011;63518;49.572;1.106;2022-12-29T05:15:59;7.45;;;1.70;;
74959;SDS011;63518;49.572;1.106;2022-12-29T05:22:28;8.50;;;1.15;;
74959;SDS011;63518;49.572;1.106;2022-12-29T05:25:33;8.25;;;1.30;;
74959;SDS011;63518;49.572;1.106;2022-12-29T05:28:45;8.73;;;1.50;;
74959;SDS011;63518;49.572;1.106;2022-12-29T05:32:30;7.05;;;1.20;;
74959;SDS011;63518;49.572;1.106;2022-12-29T05:35:34;6.57;;;1.23;;
74959;SDS011;63518;49.572;1.106;2022-12-29T05:38:07;9.93;;;1.88;;
74959;SDS011;63518;49.572;1.106;2022-12-29T05:41:11;10.60;;;1.40;;
74959;SDS011;63518;49.572;1.106;2022-12-29T05:44:02;7.72;;;1.52;;
74959;SDS011;63518;49.572;1.106;2022-12-29T05:47:06;7.97;;;1.47;;
74959;SDS011;63518;49.572;1.106;2022-12-29T05:50:07;8.23;;;1.60;;
74959;SDS011;63518;49.572;1.106;2022-12-29T05:53:10;7.93;;;1.25;;
74959;SDS011;63518;49.572;1.106;2022-12-29T05:55:48;7.82;;;1.27;;
74959;SDS011;63518;49.572;1.106;2022-12-29T05:58:46;8.23;;;1.37;;
74959;SDS011;63518;49.572;1.106;2022-12-29T06:02:20;10.05;;;1.42;;
74959;SDS011;63518;49.572;1.106;2022-12-29T06:05:56;9.50;;;1.58;;
74959;SDS011;63518;49.572;1.106;2022-12-29T06:12:57;7.13;;;1.30;;
74959;SDS011;63518;49.572;1.106;2022-12-29T06:15:47;10.03;;;1.40;;
74959;SDS011;63518;49.572;1.106;2022-12-29T06:18:53;10.05;;;1.70;;
74959;SDS011;63518;49.572;1.106;2022-12-29T06:22:06;7.63;;;1.40;;
74959;SDS011;63518;49.572;1.106;2022-12-29T06:25:36;8.75;;;1.33;;
74959;SDS011;63518;49.572;1.106;2022-12-29T06:28:29;10.87;;;1.80;;
74959;SDS011;63518;49.572;1.106;2022-12-29T06:31:35;10.20;;;1.70;;
74959;SDS011;63518;49.572;1.106;2022-12-29T06:38:24;11.32;;;1.83;;
74959;SDS011;63518;49.572;1.106;2022-12-29T06:41:55;11.20;;;1.88;;
74959;SDS011;63518;49.572;1.106;2022-12-29T06:44:49;9.45;;;1.73;;
74959;SDS011;63518;49.572;1.106;2022-12-29T06:48:11;11.55;;;2.08;;
74959;SDS011;63518;49.572;1.106;2022-12-29T06:50:42;11.00;;;1.80;;
74959;SDS011;63518;49.572;1.106;2022-12-29T06:57:53;9.73;;;2.03;;
74959;SDS011;63518;49.572;1.106;2022-12-29T07:00:42;8.73;;;1.58;;
74959;SDS011;63518;49.572;1.106;2022-12-29T07:03:47;10.32;;;1.70;;
74959;SDS011;63518;49.572;1.106;2022-12-29T07:06:27;13.15;;;2.10;;
74959;SDS011;63518;49.572;1.106;2022-12-29T07:13:18;8.48;;;1.50;;
74959;SDS011;63518;49.572;1.106;2022-12-29T07:16:57;7.57;;;1.50;;
74959;SDS011;63518;49.572;1.106;2022-12-29T07:20:35;10.10;;;1.70;;
74959;SDS011;63518;49.572;1.106;2022-12-29T07:23:31;8.38;;;1.40;;
74959;SDS011;63518;49.572;1.106;2022-12-29T07:26:24;10.20;;;2.00;;
74959;SDS011;63518;49.572;1.106;2022-12-29T07:33:27;9.35;;;1.42;;
74959;SDS011;63518;49.572;1.106;2022-12-29T07:37:18;9.60;;;1.40;;
74959;SDS011;63518;49.572;1.106;2022-12-29T07:43:16;8.15;;;1.75;;
74959;SDS011;63518;49.572;1.106;2022-12-29T07:46:36;11.18;;;1.80;;
74959;SDS011;63518;49.572;1.106;2022-12-29T07:53:45;11.98;;;1.80;;
74959;SDS011;63518;49.572;1.106;2022-12-29T07:57:17;9.60;;;1.67;;
74959;SDS011;63518;49.572;1.106;2022-12-29T08:03:33;8.70;;;1.83;;
74959;SDS011;63518;49.572;1.106;2022-12-29T08:06:32;11.03;;;2.20;;
74959;SDS011;63518;49.572;1.106;2022-12-29T08:12:55;8.05;;;1.67;;
74959;SDS011;63518;49.572;1.106;2022-12-29T08:16:05;9.80;;;1.65;;
74959;SDS011;63518;49.572;1.106;2022-12-29T08:19:34;6.47;;;1.63;;
74959;SDS011;63518;49.572;1.106;2022-12-29T08:22:36;10.38;;;1.58;;
74959;SDS011;63518;49.572;1.106;2022-12-29T08:25:38;9.63;;;1.85;;
74959;SDS011;63518;49.572;1.106;2022-12-29T08:28:44;9.82;;;1.55;;
74959;SDS011;63518;49.572;1.106;2022-12-29T08:31:57;11.70;;;2.05;;
74959;SDS011;63518;49.572;1.106;2022-12-29T08:35:15;10.02;;;2.03;;
74959;SDS011;63518;49.572;1.106;2022-12-29T08:38:18;9.95;;;1.67;;
74959;SDS011;63518;49.572;1.106;2022-12-29T08:41:22;10.15;;;1.95;;
74959;SDS011;63518;49.572;1.106;2022-12-29T08:44:31;9.75;;;1.85;;
74959;SDS011;63518;49.572;1.106;2022-12-29T08:47:37;11.07;;;1.80;;
74959;SDS011;63518;49.572;1.106;2022-12-29T08:50:59;10.43;;;2.00;;
74959;SDS011;63518;49.572;1.106;2022-12-29T08:54:40;11.55;;;1.60;;
74959;SDS011;63518;49.572;1.106;2022-12-29T08:58:27;10.85;;;1.63;;
74959;SDS011;63518;49.572;1.106;2022-12-29T09:05:09;12.10;;;1.70;;
74959;SDS011;63518;49.572;1.106;2022-12-29T09:08:46;12.30;;;1.92;;
74959;SDS011;63518;49.572;1.106;2022-12-29T09:11:59;8.18;;;1.30;;
74959;SDS011;63518;49.572;1.106;2022-12-29T09:15:06;9.25;;;1.90;;
74959;SDS011;63518;49.572;1.106;2022-12-29T09:18:09;10.47;;;2.10;;
74959;SDS011;63518;49.572;1.106;2022-12-29T09:21:15;10.45;;;1.70;;
74959;SDS011;63518;49.572;1.106;2022-12-29T09:24:48;11.32;;;2.13;;
74959;SDS011;63518;49.572;1.106;2022-12-29T09:27:56;10.07;;;2.17;;
74959;SDS011;63518;49.572;1.106;2022-12-29T09:30:36;10.75;;;2.20;;
74959;SDS011;63518;49.572;1.106;2022-12-29T09:33:36;8.07;;;1.67;;
74959;SDS011;63518;49.572;1.106;2022-12-29T09:37:02;9.50;;;1.95;;
74959;SDS011;63518;49.572;1.106;2022-12-29T09:41:12;11.27;;;1.90;;
74959;SDS011;63518;49.572;1.106;2022-12-29T09:47:37;12.70;;;1.80;;
74959;SDS011;63518;49.572;1.106;2022-12-29T09:50:47;10.30;;;1.98;;
74959;SDS011;63518;49.572;1.106;2022-12-29T10:01:07;9.10;;;1.73;;
74959;SDS011;63518;49.572;1.106;2022-12-29T10:04:21;12.73;;;1.90;;
74959;SDS011;63518;49.572;1.106;2022-12-29T10:10:43;10.45;;;1.77;;
74959;SDS011;63518;49.572;1.106;2022-12-29T10:36:00;11.27;;;2.40;;
74959;SDS011;63518;49.572;1.106;2022-12-29T10:39:30;10.55;;;1.83;;
74959;SDS011;63518;49.572;1.106;2022-12-29T10:42:50;11.48;;;1.83;;
74959;SDS011;63518;49.572;1.106;2022-12-29T11:01:03;10.00;;;2.00;;
74959;SDS011;63518;49.572;1.106;2022-12-29T11:15:35;12.10;;;1.83;;
74959;SDS011;63518;49.572;1.106;2022-12-29T11:18:40;11.07;;;2.13;;
74959;SDS011;63518;49.572;1.106;2022-12-29T11:25:15;9.83;;;1.73;;
74959;SDS011;63518;49.572;1.106;2022-12-29T11:28:37;10.20;;;1.98;;
74959;SDS011;63518;49.572;1.106;2022-12-29T11:32:05;12.03;;;2.00;;
74959;SDS011;63518;49.572;1.106;2022-12-29T11:35:13;10.73;;;1.90;;
74959;SDS011;63518;49.572;1.106;2022-12-29T11:43:16;12.32;;;2.00;;
74959;SDS011;63518;49.572;1.106;2022-12-29T11:46:38;13.30;;;2.30;;
74959;SDS011;63518;49.572;1.106;2022-12-29T11:49:45;11.60;;;1.93;;
74959;SDS011;63518;49.572;1.106;2022-12-29T11:53:25;11.40;;;1.95;;
74959;SDS011;63518;49.572;1.106;2022-12-29T12:00:55;10.75;;;2.10;;
74959;SDS011;63518;49.572;1.106;2022-12-29T12:16:21;9.98;;;2.10;;
74959;SDS011;63518;49.572;1.106;2022-12-29T12:18:56;6.60;;;0.95;;
74959;SDS011;63518;49.572;1.106;2022-12-29T12:21:43;9.43;;;1.00;;
74959;SDS011;63518;49.572;1.106;2022-12-29T12:27:12;9.38;;;1.33;;
74959;SDS011;63518;49.572;1.106;2022-12-29T12:32:38;6.78;;;1.50;;
74959;SDS011;63518;49.572;1.106;2022-12-29T12:44:26;11.88;;;1.65;;
74959;SDS011;63518;49.572;1.106;2022-12-29T12:52:49;3.22;;;0.68;;
74959;SDS011;63518;49.572;1.106;2022-12-29T12:55:48;7.45;;;0.93;;
74959;SDS011;63518;49.572;1.106;2022-12-29T13:07:21;9.75;;;1.92;;
74959;SDS011;63518;49.572;1.106;2022-12-29T13:27:33;5.22;;;0.98;;
74959;SDS011;63518;49.572;1.106;2022-12-29T13:30:33;6.18;;;1.20;;
74959;SDS011;63518;49.572;1.106;2022-12-29T13:36:08;14.75;;;1.95;;
74959;SDS011;63518;49.572;1.106;2022-12-29T13:39:04;5.75;;;1.15;;
74959;SDS011;63518;49.572;1.106;2022-12-29T13:41:56;2.63;;;0.35;;
74959;SDS011;63518;49.572;1.106;2022-12-29T13:49:56;4.60;;;0.90;;
74959;SDS011;63518;49.572;1.106;2022-12-29T13:55:20;5.05;;;0.60;;
74959;SDS011;63518;49.572;1.106;2022-12-29T13:58:05;6.65;;;1.08;;
74959;SDS011;63518;49.572;1.106;2022-12-29T14:06:20;7.97;;;1.42;;
74959;SDS011;63518;49.572;1.106;2022-12-29T14:09:06;6.65;;;0.90;;
74959;SDS011;63518;49.572;1.106;2022-12-29T14:12:01;4.68;;;0.50;;
74959;SDS011;63518;49.572;1.106;2022-12-29T14:14:50;1.50;;;0.50;;
74959;SDS011;63518;49.572;1.106;2022-12-29T14:17:19;5.45;;;0.98;;
74959;SDS011;63518;49.572;1.106;2022-12-29T14:19:51;7.60;;;1.60;;
74959;SDS011;63518;49.572;1.106;2022-12-29T14:22:24;3.47;;;0.63;;
74959;SDS011;63518;49.572;1.106;2022-12-29T14:24:59;6.60;;;1.20;;
74959;SDS011;63518;49.572;1.106;2022-12-29T14:29:54;10.80;;;2.03;;
74959;SDS011;63518;49.572;1.106;2022-12-29T14:40:16;2.47;;;0.70;;
74959;SDS011;63518;49.572;1.106;2022-12-29T14:42:47;3.90;;;0.63;;
74959;SDS011;63518;49.572;1.106;2022-12-29T14:45:27;4.72;;;0.65;;
74959;SDS011;63518;49.572;1.106;2022-12-29T14:47:56;7.60;;;0.95;;
74959;SDS011;63518;49.572;1.106;2022-12-29T14:50:37;5.10;;;1.13;;
74959;SDS011;63518;49.572;1.106;2022-12-29T14:53:40;5.82;;;0.98;;
74959;SDS011;63518;49.572;1.106;2022-12-29T14:56:23;8.95;;;1.60;;
74959;SDS011;63518;49.572;1.106;2022-12-29T14:58:59;2.67;;;0.70;;
74959;SDS011;63518;49.572;1.106;2022-12-29T15:06:43;11.15;;;1.50;;
74959;SDS011;63518;49.572;1.106;2022-12-29T15:09:22;1.42;;;0.50;;
74959;SDS011;63518;49.572;1.106;2022-12-29T15:14:53;5.63;;;0.98;;
74959;SDS011;63518;49.572;1.106;2022-12-29T15:20:14;8.77;;;1.10;;
74959;SDS011;63518;49.572;1.106;2022-12-29T15:23:08;1.13;;;0.20;;
74959;SDS011;63518;49.572;1.106;2022-12-29T15:25:56;5.53;;;1.23;;
74959;SDS011;63518;49.572;1.106;2022-12-29T15:28:25;2.95;;;0.88;;
74959;SDS011;63518;49.572;1.106;2022-12-29T15:30:57;1.65;;;0.93;;
74959;SDS011;63518;49.572;1.106;2022-12-29T15:33:30;3.63;;;0.80;;
74959;SDS011;63518;49.572;1.106;2022-12-29T15:36:03;5.28;;;0.68;;
74959;SDS011;63518;49.572;1.106;2022-12-29T15:38:33;7.32;;;1.30;;
74959;SDS011;63518;49.572;1.106;2022-12-29T15:41:07;6.75;;;1.02;;
74959;SDS011;63518;49.572;1.106;2022-12-29T15:46:44;8.25;;;1.02;;
74959;SDS011;63518;49.572;1.106;2022-12-29T15:49:11;3.67;;;0.52;;
74959;SDS011;63518;49.572;1.106;2022-12-29T15:51:40;3.53;;;0.70;;
74959;SDS011;63518;49.572;1.106;2022-12-29T15:54:16;6.55;;;0.63;;
74959;SDS011;63518;49.572;1.106;2022-12-29T15:56:45;7.75;;;0.95;;
74959;SDS011;63518;49.572;1.106;2022-12-29T15:59:23;5.32;;;0.60;;
74959;SDS011;63518;49.572;1.106;2022-12-29T16:01:55;12.45;;;1.30;;
74959;SDS011;63518;49.572;1.106;2022-12-29T16:04:29;6.80;;;1.85;;
74959;SDS011;63518;49.572;1.106;2022-12-29T16:10:54;5.78;;;0.60;;
74959;SDS011;63518;49.572;1.106;2022-12-29T16:13:06;7.35;;;1.40;;
74959;SDS011;63518;49.572;1.106;2022-12-29T16:15:46;4.65;;;0.65;;
74959;SDS011;63518;49.572;1.106;2022-12-29T16:18:27;3.78;;;0.95;;
74959;SDS011;63518;49.572;1.106;2022-12-29T16:20:57;1.67;;;0.45;;
74959;SDS011;63518;49.572;1.106;2022-12-29T16:23:25;3.53;;;1.27;;
74959;SDS011;63518;49.572;1.106;2022-12-29T16:25:57;7.32;;;1.88;;
74959;SDS011;63518;49.572;1.106;2022-12-29T16:28:30;3.05;;;0.55;;
74959;SDS011;63518;49.572;1.106;2022-12-29T16:31:13;1.88;;;0.57;;
74959;SDS011;63518;49.572;1.106;2022-12-29T16:33:50;5.95;;;0.80;;
74959;SDS011;63518;49.572;1.106;2022-12-29T16:36:55;4.43;;;1.05;;
74959;SDS011;63518;49.572;1.106;2022-12-29T16:39:33;8.05;;;1.27;;
74959;SDS011;63518;49.572;1.106;2022-12-29T16:50:44;4.82;;;1.33;;
74959;SDS011;63518;49.572;1.106;2022-12-29T16:53:24;2.13;;;0.63;;
74959;SDS011;63518;49.572;1.106;2022-12-29T16:56:02;3.78;;;0.75;;
74959;SDS011;63518;49.572;1.106;2022-12-29T16:58:41;2.30;;;0.60;;
74959;SDS011;63518;49.572;1.106;2022-12-29T17:01:17;10.65;;;1.00;;
74959;SDS011;63518;49.572;1.106;2022-12-29T17:03:47;3.75;;;1.00;;
74959;SDS011;63518;49.572;1.106;2022-12-29T17:06:24;4.78;;;0.70;;
74959;SDS011;63518;49.572;1.106;2022-12-29T17:16:10;1.40;;;0.45;;
74959;SDS011;63518;49.572;1.106;2022-12-29T17:18:41;0.22;;;0.05;;
74959;SDS011;63518;49.572;1.106;2022-12-29T17:21:34;3.75;;;1.13;;
74959;SDS011;63518;49.572;1.106;2022-12-29T17:24:15;5.80;;;1.23;;
74959;SDS011;63518;49.572;1.106;2022-12-29T17:26:45;6.25;;;1.10;;
74959;SDS011;63518;49.572;1.106;2022-12-29T17:32:12;6.68;;;0.93;;
74959;SDS011;63518;49.572;1.106;2022-12-29T17:34:40;5.97;;;1.20;;
74959;SDS011;63518;49.572;1.106;2022-12-29T17:37:51;5.82;;;0.70;;
74959;SDS011;63518;49.572;1.106;2022-12-29T17:40:27;4.88;;;0.88;;
74959;SDS011;63518;49.572;1.106;2022-12-29T17:43:12;3.78;;;0.63;;
74959;SDS011;63518;49.572;1.106;2022-12-29T17:45:48;3.45;;;1.02;;
74959;SDS011;63518;49.572;1.106;2022-12-29T17:48:25;2.78;;;0.63;;
74959;SDS011;63518;49.572;1.106;2022-12-29T17:50:53;3.88;;;0.80;;
74959;SDS011;63518;49.572;1.106;2022-12-29T17:53:27;5.35;;;1.23;;
74959;SDS011;63518;49.572;1.106;2022-12-29T17:55:58;2.85;;;0.50;;
74959;SDS011;63518;49.572;1.106;2022-12-29T17:58:40;0.35;;;0.17;;
74959;SDS011;63518;49.572;1.106;2022-12-29T18:01:23;2.45;;;0.52;;
74959;SDS011;63518;49.572;1.106;2022-12-29T18:04:11;0.70;;;0.30;;
74959;SDS011;63518;49.572;1.106;2022-12-29T18:07:07;2.88;;;0.30;;
74959;SDS011;63518;49.572;1.106;2022-12-29T18:10:16;3.10;;;1.35;;
74959;SDS011;63518;49.572;1.106;2022-12-29T18:12:47;5.07;;;1.17;;
74959;SDS011;63518;49.572;1.106;2022-12-29T18:15:23;3.72;;;0.70;;
74959;SDS011;63518;49.572;1.106;2022-12-29T18:17:59;4.32;;;0.95;;
74959;SDS011;63518;49.572;1.106;2022-12-29T18:20:50;9.30;;;1.10;;
74959;SDS011;63518;49.572;1.106;2022-12-29T18:25:53;0.98;;;0.32;;
74959;SDS011;63518;49.572;1.106;2022-12-29T18:28:27;1.88;;;0.73;;
74959;SDS011;63518;49.572;1.106;2022-12-29T18:31:03;3.50;;;0.65;;
74959;SDS011;63518;49.572;1.106;2022-12-29T18:33:47;1.85;;;0.43;;
74959;SDS011;63518;49.572;1.106;2022-12-29T18:36:18;6.30;;;1.10;;
74959;SDS011;63518;49.572;1.106;2022-12-29T18:41:24;1.52;;;0.47;;
74959;SDS011;63518;49.572;1.106;2022-12-29T18:43:56;1.52;;;0.25;;
74959;SDS011;63518;49.572;1.106;2022-12-29T18:46:24;6.25;;;0.75;;
74959;SDS011;63518;49.572;1.106;2022-12-29T18:48:55;3.90;;;0.70;;
74959;SDS011;63518;49.572;1.106;2022-12-29T18:51:24;1.38;;;0.40;;
74959;SDS011;63518;49.572;1.106;2022-12-29T18:53:56;1.77;;;0.52;;
74959;SDS011;63518;49.572;1.106;2022-12-29T18:56:23;2.22;;;0.52;;
74959;SDS011;63518;49.572;1.106;2022-12-29T18:58:50;2.80;;;1.30;;
74959;SDS011;63518;49.572;1.106;2022-12-29T19:01:24;2.20;;;0.70;;
74959;SDS011;63518;49.572;1.106;2022-12-29T19:03:54;2.63;;;0.88;;
74959;SDS011;63518;49.572;1.106;2022-12-29T19:06:28;3.67;;;0.88;;
74959;SDS011;63518;49.572;1.106;2022-12-29T19:09:05;1.13;;;0.32;;
74959;SDS011;63518;49.572;1.106;2022-12-29T19:11:33;6.65;;;0.70;;
74959;SDS011;63518;49.572;1.106;2022-12-29T19:14:04;0.95;;;0.28;;
74959;SDS011;63518;49.572;1.106;2022-12-29T19:16:31;6.88;;;1.08;;
74959;SDS011;63518;49.572;1.106;2022-12-29T19:18:58;5.65;;;1.08;;
74959;SDS011;63518;49.572;1.106;2022-12-29T19:21:35;2.22;;;0.40;;
74959;SDS011;63518;49.572;1.106;2022-12-29T19:24:03;4.93;;;1.02;;
74959;SDS011;63518;49.572;1.106;2022-12-29T19:26:32;1.88;;;0.80;;
74959;SDS011;63518;49.572;1.106;2022-12-29T19:29:06;1.48;;;0.32;;
74959;SDS011;63518;49.572;1.106;2022-12-29T19:31:44;3.65;;;0.55;;
74959;SDS011;63518;49.572;1.106;2022-12-29T19:34:14;1.20;;;0.35;;
74959;SDS011;63518;49.572;1.106;2022-12-29T19:36:43;6.60;;;0.90;;
74959;SDS011;63518;49.572;1.106;2022-12-29T19:39:13;2.17;;;0.85;;
74959;SDS011;63518;49.572;1.106;2022-12-29T19:41:42;1.10;;;0.40;;
74959;SDS011;63518;49.572;1.106;2022-12-29T19:44:09;12.05;;;0.85;;
74959;SDS011;63518;49.572;1.106;2022-12-29T19:46:37;5.78;;;0.60;;
74959;SDS011;63518;49.572;1.106;2022-12-29T19:49:05;3.65;;;0.80;;
74959;SDS011;63518;49.572;1.106;2022-12-29T19:51:32;3.70;;;0.43;;
74959;SDS011;63518;49.572;1.106;2022-12-29T19:54:04;4.43;;;1.25;;
74959;SDS011;63518;49.572;1.106;2022-12-29T19:56:36;4.68;;;1.20;;
74959;SDS011;63518;49.572;1.106;2022-12-29T19:59:04;1.77;;;0.47;;
74959;SDS011;63518;49.572;1.106;2022-12-29T20:01:32;1.20;;;0.32;;
74959;SDS011;63518;49.572;1.106;2022-12-29T20:03:59;3.78;;;0.82;;
74959;SDS011;63518;49.572;1.106;2022-12-29T20:06:31;3.50;;;0.60;;
74959;SDS011;63518;49.572;1.106;2022-12-29T20:09:00;2.55;;;0.73;;
74959;SDS011;63518;49.572;1.106;2022-12-29T20:11:37;0.70;;;0.32;;
74959;SDS011;63518;49.572;1.106;2022-12-29T20:14:07;4.10;;;1.00;;
74959;SDS011;63518;49.572;1.106;2022-12-29T20:16:36;3.40;;;0.85;;
74959;SDS011;63518;49.572;1.106;2022-12-29T20:19:27;2.00;;;0.52;;
74959;SDS011;63518;49.572;1.106;2022-12-29T20:21:56;2.85;;;0.98;;
74959;SDS011;63518;49.572;1.106;2022-12-29T20:24:25;4.75;;;0.93;;
74959;SDS011;63518;49.572;1.106;2022-12-29T20:26:53;0.93;;;0.32;;
74959;SDS011;63518;49.572;1.106;2022-12-29T20:29:21;1.92;;;0.75;;
74959;SDS011;63518;49.572;1.106;2022-12-29T20:31:48;3.35;;;0.50;;
74959;SDS011;63518;49.572;1.106;2022-12-29T20:34:16;7.55;;;1.52;;
74959;SDS011;63518;49.572;1.106;2022-12-29T20:36:45;6.57;;;1.45;;
74959;SDS011;63518;49.572;1.106;2022-12-29T20:39:16;3.90;;;0.82;;
74959;SDS011;63518;49.572;1.106;2022-12-29T20:44:14;3.17;;;0.95;;
74959;SDS011;63518;49.572;1.106;2022-12-29T20:46:41;1.23;;;0.30;;
74959;SDS011;63518;49.572;1.106;2022-12-29T20:49:12;10.23;;;1.50;;
74959;SDS011;63518;49.572;1.106;2022-12-29T20:51:39;1.10;;;0.30;;
74959;SDS011;63518;49.572;1.106;2022-12-29T20:54:29;1.05;;;0.30;;
74959;SDS011;63518;49.572;1.106;2022-12-29T20:57:04;3.70;;;0.77;;
74959;SDS011;63518;49.572;1.106;2022-12-29T20:59:33;4.13;;;1.38;;
74959;SDS011;63518;49.572;1.106;2022-12-29T21:02:00;5.03;;;1.23;;
74959;SDS011;63518;49.572;1.106;2022-12-29T21:04:28;8.15;;;1.08;;
74959;SDS011;63518;49.572;1.106;2022-12-29T21:07:15;2.63;;;1.23;;
74959;SDS011;63518;49.572;1.106;2022-12-29T21:09:45;6.57;;;1.27;;
74959;SDS011;63518;49.572;1.106;2022-12-29T21:12:12;1.08;;;0.40;;
74959;SDS011;63518;49.572;1.106;2022-12-29T21:14:40;6.55;;;0.90;;
74959;SDS011;63518;49.572;1.106;2022-12-29T21:17:11;3.65;;;0.40;;
74959;SDS011;63518;49.572;1.106;2022-12-29T21:19:38;2.28;;;0.80;;
74959;SDS011;63518;49.572;1.106;2022-12-29T21:22:07;0.95;;;0.32;;
74959;SDS011;63518;49.572;1.106;2022-12-29T21:24:35;1.95;;;0.75;;
74959;SDS011;63518;49.572;1.106;2022-12-29T21:27:04;0.88;;;0.35;;
74959;SDS011;63518;49.572;1.106;2022-12-29T21:29:32;3.10;;;0.70;;
74959;SDS011;63518;49.572;1.106;2022-12-29T21:31:59;2.13;;;1.95;;
74959;SDS011;63518;49.572;1.106;2022-12-29T21:34:32;5.45;;;0.82;;
74959;SDS011;63518;49.572;1.106;2022-12-29T21:37:00;2.47;;;0.60;;
74959;SDS011;63518;49.572;1.106;2022-12-29T21:39:29;3.03;;;0.95;;
74959;SDS011;63518;49.572;1.106;2022-12-29T21:41:56;5.05;;;1.00;;
74959;SDS011;63518;49.572;1.106;2022-12-29T21:44:26;6.18;;;0.90;;
74959;SDS011;63518;49.572;1.106;2022-12-29T21:47:11;2.38;;;0.60;;
74959;SDS011;63518;49.572;1.106;2022-12-29T21:49:38;5.20;;;0.55;;
74959;SDS011;63518;49.572;1.106;2022-12-29T21:52:08;13.98;;;1.48;;
74959;SDS011;63518;49.572;1.106;2022-12-29T21:54:35;3.03;;;1.15;;
74959;SDS011;63518;49.572;1.106;2022-12-29T21:57:20;7.82;;;1.48;;
74959;SDS011;63518;49.572;1.106;2022-12-29T22:00:10;8.98;;;1.40;;
74959;SDS011;63518;49.572;1.106;2022-12-29T22:03:01;7.28;;;1.20;;
74959;SDS011;63518;49.572;1.106;2022-12-29T22:05:50;1.10;;;0.38;;
74959;SDS011;63518;49.572;1.106;2022-12-29T22:08:36;8.63;;;1.13;;
74959;SDS011;63518;49.572;1.106;2022-12-29T22:11:26;1.25;;;0.20;;
74959;SDS011;63518;49.572;1.106;2022-12-29T22:14:12;7.38;;;1.00;;
74959;SDS011;63518;49.572;1.106;2022-12-29T22:16:39;1.45;;;0.47;;
74959;SDS011;63518;49.572;1.106;2022-12-29T22:19:06;4.78;;;0.80;;